createdAt,value
2023-08-05T00:00:21.830Z,55.15
2023-08-05T00:02:52.670Z,55.17
2023-08-05T00:05:23.501Z,55.20
2023-08-05T00:07:54.359Z,55.22
2023-08-05T00:10:25.330Z,55.25
2023-08-05T00:12:56.296Z,55.27
2023-08-05T00:15:27.457Z,55.30
2023-08-05T00:17:58.331Z,55.31
2023-08-05T00:20:29.320Z,55.34
2023-08-05T00:23:00.179Z,55.37
2023-08-05T00:25:30.978Z,55.39
2023-08-05T00:28:01.829Z,55.40
2023-08-05T00:30:32.692Z,55.43
2023-08-05T00:33:03.588Z,55.44
2023-08-05T00:35:34.385Z,55.48
2023-08-05T00:38:05.194Z,55.50
2023-08-05T00:40:36.017Z,55.52
2023-08-05T00:43:06.855Z,55.53
2023-08-05T00:45:37.745Z,55.57
2023-08-05T00:48:08.658Z,55.58
2023-08-05T00:50:39.786Z,55.61
2023-08-05T00:53:10.601Z,55.63
2023-08-05T00:55:42.084Z,55.64
2023-08-05T00:58:12.911Z,55.66
2023-08-05T01:00:43.737Z,55.69
2023-08-05T01:03:14.759Z,55.71
2023-08-05T01:05:45.610Z,55.73
2023-08-05T01:08:16.403Z,55.75
2023-08-05T01:10:47.235Z,55.78
2023-08-05T01:13:18.046Z,55.79
2023-08-05T01:15:48.902Z,55.83
2023-08-05T01:18:19.941Z,55.86
2023-08-05T01:20:51.522Z,55.88
2023-08-05T01:23:34.418Z,55.90
2023-08-05T01:26:05.293Z,55.94
2023-08-05T01:28:36.100Z,55.95
2023-08-05T01:31:06.989Z,55.98
2023-08-05T01:33:37.859Z,56.00
2023-08-05T01:36:08.654Z,56.03
2023-08-05T01:38:41.813Z,56.06
2023-08-05T01:41:12.611Z,56.08
2023-08-05T01:43:43.475Z,56.10
2023-08-05T01:46:14.320Z,56.13
2023-08-05T01:48:45.229Z,56.15
2023-08-05T01:51:16.134Z,56.18
2023-08-05T01:53:46.954Z,56.19
2023-08-05T01:56:17.757Z,56.21
2023-08-05T01:58:48.601Z,56.22
2023-08-05T02:01:19.487Z,56.25
2023-08-05T02:03:50.770Z,56.25
2023-08-05T02:06:21.676Z,56.27
2023-08-05T02:08:52.688Z,56.27
2023-08-05T02:11:23.517Z,56.29
2023-08-05T02:13:54.298Z,56.29
2023-08-05T02:16:25.201Z,56.31
2023-08-05T02:18:56.712Z,56.33
2023-08-05T02:21:27.609Z,56.33
2023-08-05T02:23:58.529Z,56.35
2023-08-05T02:26:29.402Z,56.38
2023-08-05T02:29:00.242Z,56.40
2023-08-05T02:31:31.099Z,56.42
2023-08-05T02:34:01.948Z,56.45
2023-08-05T02:36:32.772Z,56.47
2023-08-05T02:39:03.638Z,56.49
2023-08-05T02:41:34.448Z,56.52
2023-08-05T02:44:05.291Z,56.53
2023-08-05T02:46:36.190Z,56.56
2023-08-05T02:49:09.169Z,56.57
2023-08-05T02:51:40.096Z,56.58
2023-08-05T02:54:10.959Z,56.60
2023-08-05T02:56:41.804Z,56.62
2023-08-05T02:59:13.024Z,56.63
2023-08-05T03:01:43.911Z,56.64
2023-08-05T03:04:14.810Z,56.65
2023-08-05T03:06:45.702Z,56.66
2023-08-05T03:09:16.539Z,56.67
2023-08-05T03:11:48.202Z,56.68
2023-08-05T03:14:19.034Z,56.68
2023-08-05T03:16:50.130Z,56.69
2023-08-05T03:19:23.710Z,56.69
2023-08-05T03:21:54.866Z,56.69
2023-08-05T03:24:25.794Z,56.70
2023-08-05T03:26:57.002Z,56.70
2023-08-05T03:29:27.911Z,56.69
2023-08-05T03:31:58.969Z,56.69
2023-08-05T03:34:30.509Z,56.70
2023-08-05T03:37:01.922Z,56.70
2023-08-05T03:39:33.116Z,56.70
2023-08-05T03:42:03.988Z,56.70
2023-08-05T03:44:34.962Z,56.70
2023-08-05T03:47:05.895Z,56.70
2023-08-05T03:49:38.600Z,56.70
2023-08-05T03:52:09.629Z,56.70
2023-08-05T03:54:40.508Z,56.70
2023-08-05T03:57:11.301Z,56.70
2023-08-05T03:59:43.474Z,56.71
2023-08-05T04:02:15.043Z,56.71
2023-08-05T04:04:46.795Z,56.71
2023-08-05T04:07:20.086Z,56.71
2023-08-05T04:09:52.980Z,56.70
2023-08-05T04:12:23.803Z,56.69
2023-08-05T04:14:59.198Z,56.71
2023-08-05T04:17:30.643Z,56.69
2023-08-05T04:20:01.555Z,56.68
2023-08-05T04:22:32.425Z,56.68
2023-08-05T04:25:03.402Z,56.68
2023-08-05T04:27:34.267Z,56.67
2023-08-05T04:30:06.868Z,56.67
2023-08-05T04:32:37.943Z,56.67
2023-08-05T04:35:08.989Z,56.66
2023-08-05T04:37:39.871Z,56.65
2023-08-05T04:40:11.032Z,56.65
2023-08-05T04:42:41.938Z,56.64
2023-08-05T04:45:12.770Z,56.64
2023-08-05T04:47:43.629Z,56.63
2023-08-05T04:50:14.539Z,56.62
2023-08-05T04:52:46.536Z,56.61
2023-08-05T04:55:17.394Z,56.60
2023-08-05T04:57:51.825Z,56.59
2023-08-05T05:00:22.779Z,56.59
2023-08-05T05:02:54.069Z,56.58
2023-08-05T05:05:25.681Z,56.58
2023-08-05T05:07:56.558Z,56.57
2023-08-05T05:10:27.384Z,56.56
2023-08-05T05:12:58.765Z,56.55
2023-08-05T05:15:29.890Z,56.55
2023-08-05T05:18:00.697Z,56.54
2023-08-05T05:20:31.546Z,56.54
2023-08-05T05:23:02.340Z,56.52
2023-08-05T05:25:33.129Z,56.53
2023-08-05T05:28:04.041Z,56.52
2023-08-05T05:30:35.214Z,56.50
2023-08-05T05:33:06.140Z,56.49
2023-08-05T05:35:36.971Z,56.48
2023-08-05T05:38:07.793Z,56.48
2023-08-05T05:40:41.695Z,56.46
2023-08-05T05:43:12.585Z,56.46
2023-08-05T05:45:45.579Z,56.48
2023-08-05T05:48:16.885Z,56.50
2023-08-05T05:50:49.409Z,56.50
2023-08-05T05:53:20.252Z,56.52
2023-08-05T05:55:54.093Z,56.53
2023-08-05T05:58:24.957Z,56.55
2023-08-05T06:00:56.106Z,56.56
2023-08-05T06:03:27.215Z,56.58
2023-08-05T06:05:59.023Z,56.61
2023-08-05T06:08:30.095Z,56.64
2023-08-05T06:11:01.519Z,56.65
2023-08-05T06:13:32.409Z,56.67
2023-08-05T06:16:03.540Z,56.69
2023-08-05T06:18:34.383Z,56.70
2023-08-05T06:21:05.172Z,56.74
2023-08-05T06:23:35.981Z,56.77
2023-08-05T06:26:06.832Z,56.78
2023-08-05T06:28:37.631Z,56.79
2023-08-05T06:31:08.531Z,56.79
2023-08-05T06:33:39.351Z,56.84
2023-08-05T06:36:10.233Z,56.90
2023-08-05T06:38:41.070Z,56.93
2023-08-05T06:41:11.899Z,56.95
2023-08-05T06:43:42.703Z,56.96
2023-08-05T06:46:13.524Z,56.96
2023-08-05T06:48:44.400Z,56.97
2023-08-05T06:51:15.250Z,56.98
2023-08-05T06:53:46.115Z,56.98
2023-08-05T06:56:17.012Z,56.97
2023-08-05T06:58:48.514Z,56.95
2023-08-05T07:01:19.415Z,56.97
2023-08-05T07:03:50.287Z,56.98
2023-08-05T07:06:21.099Z,56.98
2023-08-05T07:08:52.114Z,57.00
2023-08-05T07:11:22.948Z,57.04
2023-08-05T07:13:53.778Z,57.09
2023-08-05T07:16:24.628Z,57.16
2023-08-05T07:18:55.484Z,57.23
2023-08-05T07:21:26.290Z,57.30
2023-08-05T07:23:57.088Z,57.38
2023-08-05T07:26:27.870Z,57.45
2023-08-05T07:28:58.808Z,57.52
2023-08-05T07:31:29.648Z,57.59
2023-08-05T07:34:00.952Z,57.64
2023-08-05T07:36:31.798Z,57.69
2023-08-05T07:39:07.009Z,57.72
2023-08-05T07:41:37.894Z,57.76
2023-08-05T07:44:10.242Z,57.81
2023-08-05T07:46:42.288Z,57.85
2023-08-05T07:49:13.511Z,57.88
2023-08-05T07:51:48.009Z,57.91
2023-08-05T07:54:18.864Z,57.95
2023-08-05T07:56:49.678Z,57.97
2023-08-05T07:59:20.778Z,58.00
2023-08-05T08:01:54.049Z,58.01
2023-08-05T08:04:25.323Z,58.02
2023-08-05T08:06:56.128Z,58.02
2023-08-05T08:09:27.425Z,58.03
2023-08-05T08:11:58.252Z,58.08
2023-08-05T08:14:29.261Z,58.17
2023-08-05T08:17:00.213Z,58.33
2023-08-05T08:19:31.127Z,58.43
2023-08-05T08:22:01.951Z,58.55
2023-08-05T08:24:32.799Z,58.73
2023-08-05T08:27:03.683Z,58.88
2023-08-05T08:29:34.534Z,58.95
2023-08-05T08:32:05.551Z,58.95
2023-08-05T08:34:36.386Z,58.95
2023-08-05T08:37:07.249Z,58.94
2023-08-05T08:39:38.083Z,58.93
2023-08-05T08:42:08.960Z,58.92
2023-08-05T08:44:39.808Z,58.92
2023-08-05T08:47:10.652Z,58.91
2023-08-05T08:49:41.527Z,58.91
2023-08-05T08:52:13.444Z,58.92
2023-08-05T08:54:44.648Z,58.92
2023-08-05T08:57:16.315Z,58.95
2023-08-05T08:59:47.801Z,58.98
2023-08-05T09:02:22.207Z,59.00
2023-08-05T09:04:53.991Z,59.02
2023-08-05T09:07:27.849Z,59.04
2023-08-05T09:10:03.415Z,59.05
2023-08-05T09:12:34.689Z,59.05
2023-08-05T09:15:05.707Z,59.07
2023-08-05T09:17:37.561Z,59.07
2023-08-05T09:20:17.275Z,59.07
2023-08-05T09:22:56.672Z,59.09
2023-08-05T09:25:29.552Z,59.13
2023-08-05T09:28:05.292Z,59.19
2023-08-05T09:30:36.203Z,59.25
2023-08-05T09:33:07.215Z,59.30
2023-08-05T09:35:38.115Z,59.37
2023-08-05T09:38:11.190Z,59.39
2023-08-05T09:40:46.356Z,59.45
2023-08-05T09:43:18.909Z,59.49
2023-08-05T09:45:50.389Z,59.53
2023-08-05T09:48:23.577Z,59.56
2023-08-05T09:50:54.411Z,59.57
2023-08-05T09:53:25.641Z,59.59
2023-08-05T09:55:56.514Z,59.57
2023-08-05T09:58:27.712Z,59.54
2023-08-05T10:00:58.954Z,59.47
2023-08-05T10:03:30.138Z,59.45
2023-08-05T10:06:01.363Z,59.44
2023-08-05T10:08:37.130Z,59.43
2023-08-05T10:11:08.463Z,59.36
2023-08-05T10:13:40.324Z,59.25
2023-08-05T10:16:11.263Z,59.06
2023-08-05T10:18:42.169Z,58.90
2023-08-05T10:21:14.068Z,58.80
2023-08-05T10:23:45.364Z,58.74
2023-08-05T10:26:16.216Z,58.78
2023-08-05T10:28:47.685Z,58.96
2023-08-05T10:31:26.605Z,59.15
2023-08-05T10:34:14.237Z,59.22
2023-08-05T10:36:46.942Z,59.29
2023-08-05T10:39:37.565Z,59.35
2023-08-05T10:42:27.397Z,59.38
2023-08-05T10:44:59.875Z,59.51
2023-08-05T10:47:30.920Z,59.64
2023-08-05T10:50:03.236Z,59.75
2023-08-05T10:52:36.585Z,59.84
2023-08-05T10:55:13.341Z,59.83
2023-08-05T10:57:46.068Z,59.85
2023-08-05T11:00:18.629Z,59.92
2023-08-05T11:02:51.680Z,60.02
2023-08-05T11:05:23.772Z,60.04
2023-08-05T11:07:57.369Z,60.00
2023-08-05T11:10:30.878Z,60.02
2023-08-05T11:13:02.625Z,60.10
2023-08-05T11:15:33.699Z,60.16
2023-08-05T11:18:05.959Z,60.22
2023-08-05T11:20:37.507Z,60.23
2023-08-05T11:23:30.327Z,60.25
2023-08-05T11:26:22.917Z,60.22
2023-08-05T11:32:26.850Z,60.25
2023-08-05T11:35:22.267Z,60.34
2023-08-05T11:38:20.933Z,60.35
2023-08-05T11:40:57.656Z,60.42
2023-08-05T11:43:37.360Z,60.51
2023-08-05T11:46:30.012Z,60.53
2023-08-05T11:49:18.734Z,60.53
2023-08-05T11:52:14.392Z,60.61
2023-08-05T11:54:48.731Z,60.73
2023-08-05T11:57:35.308Z,60.83
2023-08-05T12:00:12.543Z,60.91
2023-08-05T12:03:06.212Z,61.04
2023-08-05T12:05:43.663Z,61.17
2023-08-05T12:08:41.042Z,61.19
2023-08-05T12:11:17.172Z,61.21
2023-08-05T12:14:29.000Z,61.24
2023-08-05T12:17:13.182Z,61.30
2023-08-05T12:20:06.222Z,61.36
2023-08-05T12:23:12.978Z,61.44
2023-08-05T12:26:10.714Z,61.46
2023-08-05T12:29:20.350Z,61.53
2023-08-05T12:31:52.307Z,61.60
2023-08-05T12:34:24.808Z,61.66
2023-08-05T12:37:25.201Z,61.71
2023-08-05T12:40:10.112Z,61.77
2023-08-05T12:42:45.699Z,61.86
2023-08-05T12:45:18.484Z,61.94
2023-08-05T12:48:15.627Z,62.00
2023-08-05T12:50:52.728Z,62.10
2023-08-05T12:53:24.771Z,62.15
2023-08-05T12:55:57.062Z,62.17
2023-08-05T12:58:28.501Z,62.24
2023-08-05T13:01:08.555Z,62.29
2023-08-05T13:04:20.003Z,62.35
2023-08-05T13:06:52.442Z,62.44
2023-08-05T13:09:24.690Z,64.95
2023-08-05T13:11:57.993Z,79.05
2023-08-05T13:14:32.116Z,81.92
2023-08-05T13:17:06.033Z,79.35
2023-08-05T13:19:43.787Z,75.87
2023-08-05T13:22:37.638Z,72.52
2023-08-05T13:25:29.281Z,69.07
2023-08-05T13:28:18.947Z,66.64
2023-08-05T13:30:51.508Z,64.34
2023-08-05T13:33:24.219Z,62.57
2023-08-05T13:35:57.351Z,60.98
2023-08-05T13:39:02.315Z,59.10
2023-08-05T13:41:38.185Z,51.81
2023-08-05T13:44:18.595Z,49.14
2023-08-05T13:46:52.204Z,48.36
2023-08-05T13:49:25.845Z,48.33
2023-08-05T13:52:41.016Z,48.59
2023-08-05T13:55:19.622Z,49.10
2023-08-05T13:57:55.799Z,49.60
2023-08-05T14:00:44.875Z,50.15
2023-08-05T14:03:17.686Z,50.71
2023-08-05T14:06:23.202Z,51.26
2023-08-05T14:09:24.849Z,51.95
2023-08-05T14:12:42.532Z,52.62
2023-08-05T14:15:42.499Z,53.19
2023-08-05T14:18:27.667Z,53.75
2023-08-05T14:21:09.667Z,54.23
2023-08-05T14:23:42.437Z,54.67
2023-08-05T14:26:25.048Z,55.06
2023-08-05T14:28:57.479Z,55.46
2023-08-05T14:31:29.297Z,55.80
2023-08-05T14:34:04.470Z,56.13
2023-08-05T14:36:39.598Z,56.43
2023-08-05T14:39:12.973Z,56.74
2023-08-05T14:41:45.728Z,57.02
2023-08-05T14:44:18.440Z,57.33
2023-08-05T14:46:49.406Z,57.65
2023-08-05T14:49:21.177Z,57.92
2023-08-05T14:51:52.570Z,58.20
2023-08-05T14:54:25.923Z,58.44
2023-08-05T14:57:01.599Z,58.70
2023-08-05T14:59:34.004Z,58.95
2023-08-05T15:02:06.032Z,59.20
2023-08-05T15:04:38.474Z,59.42
2023-08-05T15:07:19.042Z,59.60
2023-08-05T15:09:53.701Z,59.82
2023-08-05T15:12:26.335Z,60.02
2023-08-05T15:14:58.281Z,60.20
2023-08-05T15:17:46.409Z,60.39
2023-08-05T15:20:23.847Z,60.60
2023-08-05T15:22:58.556Z,60.76
2023-08-05T15:25:47.346Z,60.95
2023-08-05T15:28:20.274Z,61.09
2023-08-05T15:30:55.758Z,61.22
2023-08-05T15:33:27.806Z,61.36
2023-08-05T15:36:06.449Z,61.49
2023-08-05T15:38:59.053Z,61.61
2023-08-05T15:41:39.530Z,61.75
2023-08-05T15:44:11.913Z,61.88
2023-08-05T15:46:44.754Z,62.00
2023-08-05T15:49:18.509Z,62.12
2023-08-05T15:51:51.959Z,62.22
2023-08-05T15:54:24.173Z,62.35
2023-08-05T15:56:58.232Z,62.73
2023-08-05T15:59:31.595Z,75.02
2023-08-05T16:02:05.616Z,80.38
2023-08-05T16:04:41.167Z,77.69
2023-08-05T16:07:14.437Z,74.24
2023-08-05T16:09:46.537Z,71.23
2023-08-05T16:12:19.384Z,68.63
2023-08-05T16:14:53.328Z,66.42
2023-08-05T16:17:25.205Z,64.47
2023-08-05T16:19:57.749Z,62.74
2023-08-05T16:22:31.262Z,61.23
2023-08-05T16:25:04.684Z,59.80
2023-08-05T16:27:41.842Z,54.86
2023-08-05T16:30:13.254Z,50.53
2023-08-05T16:32:47.032Z,49.34
2023-08-05T16:35:20.288Z,49.14
2023-08-05T16:37:54.133Z,49.33
2023-08-05T16:40:27.530Z,49.72
2023-08-05T16:43:22.294Z,50.20
2023-08-05T16:45:55.998Z,50.78
2023-08-05T16:48:28.461Z,51.28
2023-08-05T16:51:00.277Z,51.84
2023-08-05T16:53:34.268Z,52.36
2023-08-05T16:56:10.128Z,52.90
2023-08-05T16:58:48.031Z,53.42
2023-08-05T17:01:21.942Z,53.91
2023-08-05T17:03:53.447Z,54.42
2023-08-05T17:06:25.982Z,54.87
2023-08-05T17:08:57.774Z,55.26
2023-08-05T17:11:30.166Z,55.67
2023-08-05T17:14:01.525Z,56.06
2023-08-05T17:16:33.515Z,56.46
2023-08-05T17:19:05.246Z,56.90
2023-08-05T17:21:38.827Z,57.27
2023-08-05T17:24:11.220Z,57.66
2023-08-05T17:26:44.934Z,58.00
2023-08-05T17:29:15.972Z,58.32
2023-08-05T17:31:46.959Z,58.63
2023-08-05T17:34:18.665Z,58.96
2023-08-05T17:36:50.470Z,59.29
2023-08-05T17:39:21.945Z,59.52
2023-08-05T17:41:54.860Z,59.76
2023-08-05T17:44:27.166Z,59.99
2023-08-05T17:46:58.985Z,60.19
2023-08-05T17:49:31.493Z,60.36
2023-08-05T17:52:03.290Z,60.56
2023-08-05T17:54:34.913Z,60.72
2023-08-05T17:57:05.985Z,60.86
2023-08-05T17:59:38.182Z,61.01
2023-08-05T18:02:09.978Z,61.16
2023-08-05T18:04:42.131Z,61.29
2023-08-05T18:07:14.093Z,61.42
2023-08-05T18:09:46.482Z,61.53
2023-08-05T18:12:17.553Z,61.64
2023-08-05T18:14:49.170Z,61.75
2023-08-05T18:17:19.997Z,61.86
2023-08-05T18:19:53.925Z,61.97
2023-08-05T18:22:26.292Z,62.06
2023-08-05T18:24:57.336Z,62.15
2023-08-05T18:27:28.925Z,62.26
2023-08-05T18:30:00.738Z,62.36
2023-08-05T18:32:31.724Z,62.50
2023-08-05T18:35:03.676Z,73.36
2023-08-05T18:37:34.684Z,80.27
2023-08-05T18:40:07.893Z,77.95
2023-08-05T18:42:39.232Z,74.46
2023-08-05T18:45:11.097Z,71.29
2023-08-05T18:47:42.918Z,68.67
2023-08-05T18:50:13.996Z,66.14
2023-08-05T18:52:46.166Z,63.87
2023-08-05T18:55:17.875Z,62.16
2023-08-05T18:57:48.769Z,60.60
2023-08-05T19:00:19.991Z,58.14
2023-08-05T19:02:50.947Z,52.22
2023-08-05T19:05:22.200Z,49.64
2023-08-05T19:07:53.121Z,48.93
2023-08-05T19:10:25.202Z,48.88
2023-08-05T19:12:56.797Z,49.11
2023-08-05T19:15:28.022Z,49.50
2023-08-05T19:18:00.221Z,49.95
2023-08-05T19:20:35.743Z,50.43
2023-08-05T19:23:08.129Z,50.96
2023-08-05T19:25:40.074Z,51.50
2023-08-05T19:28:11.416Z,52.05
2023-08-05T19:30:45.436Z,52.54
2023-08-05T19:33:16.679Z,53.04
2023-08-05T19:35:47.633Z,53.50
2023-08-05T19:38:19.312Z,53.97
2023-08-05T19:40:58.827Z,54.43
2023-08-05T19:43:30.531Z,54.90
2023-08-05T19:46:04.735Z,55.32
2023-08-05T19:48:35.903Z,55.73
2023-08-05T19:53:42.909Z,56.51
2023-08-05T19:56:13.856Z,56.86
2023-08-05T19:58:44.766Z,57.20
2023-08-05T20:01:15.798Z,57.51
2023-08-05T20:03:46.713Z,57.83
2023-08-05T20:06:17.621Z,58.10
2023-08-05T20:08:48.547Z,58.37
2023-08-05T20:11:20.439Z,58.62
2023-08-05T20:13:51.344Z,58.88
2023-08-05T20:16:22.417Z,59.15
2023-08-05T20:18:53.305Z,59.40
2023-08-05T20:21:24.224Z,59.63
2023-08-05T20:23:56.262Z,59.86
2023-08-05T20:26:27.252Z,60.07
2023-08-05T20:28:58.157Z,60.25
2023-08-05T20:31:29.148Z,60.42
2023-08-05T20:33:59.985Z,60.58
2023-08-05T20:36:31.608Z,60.73
2023-08-05T20:39:03.275Z,60.90
2023-08-05T20:41:35.525Z,61.17
2023-08-05T20:44:06.452Z,61.48
2023-08-05T20:46:37.438Z,61.75
2023-08-05T20:49:09.574Z,61.97
2023-08-05T20:51:42.269Z,62.18
2023-08-05T20:54:13.940Z,62.35
2023-08-05T20:56:44.776Z,66.30
2023-08-05T20:59:16.893Z,78.98
2023-08-05T21:01:53.866Z,79.11
2023-08-05T21:04:25.080Z,75.87
2023-08-05T21:06:56.636Z,72.59
2023-08-05T21:09:27.555Z,69.71
2023-08-05T21:11:59.246Z,67.24
2023-08-05T21:14:30.490Z,65.07
2023-08-05T21:17:02.356Z,63.23
2023-08-05T21:19:34.093Z,61.64
2023-08-05T21:22:06.792Z,60.26
2023-08-05T21:24:38.267Z,56.63
2023-08-05T21:27:09.525Z,51.31
2023-08-05T21:29:40.489Z,49.51
2023-08-05T21:32:13.216Z,49.08
2023-08-05T21:34:45.571Z,49.17
2023-08-05T21:37:17.245Z,49.49
2023-08-05T21:39:52.851Z,49.91
2023-08-05T21:42:24.127Z,50.41
2023-08-05T21:44:56.041Z,50.93
2023-08-05T21:47:26.979Z,51.50
2023-08-05T21:50:00.256Z,52.03
2023-08-05T21:52:33.858Z,52.54
2023-08-05T21:55:05.244Z,53.04
2023-08-05T21:57:36.152Z,53.52
2023-08-05T22:00:12.768Z,53.99
2023-08-05T22:02:44.522Z,54.46
2023-08-05T22:05:16.143Z,54.92
2023-08-05T22:07:47.752Z,55.38
2023-08-05T22:10:18.646Z,55.81
2023-08-05T22:12:50.766Z,56.22
2023-08-05T22:15:22.123Z,56.61
2023-08-05T22:17:53.190Z,56.99
2023-08-05T22:20:24.227Z,57.35
2023-08-05T22:22:55.163Z,57.71
2023-08-05T22:25:26.102Z,58.06
2023-08-05T22:27:56.985Z,58.38
2023-08-05T22:30:27.836Z,58.68
2023-08-05T22:32:58.749Z,58.98
2023-08-05T22:35:29.721Z,59.25
2023-08-05T22:38:03.018Z,59.50
2023-08-05T22:40:37.323Z,59.79
2023-08-05T22:43:09.267Z,60.03
2023-08-05T22:45:40.305Z,60.26
2023-08-05T22:48:11.329Z,60.48
2023-08-05T22:50:43.225Z,60.68
2023-08-05T22:53:14.924Z,60.88
2023-08-05T22:55:49.441Z,61.07
2023-08-05T22:58:21.878Z,61.25
2023-08-05T23:01:00.748Z,61.43
2023-08-05T23:03:31.765Z,61.60
2023-08-05T23:06:02.795Z,61.77
2023-08-05T23:08:34.479Z,61.92
2023-08-05T23:11:06.137Z,62.07
2023-08-05T23:13:37.572Z,62.22
2023-08-05T23:16:17.501Z,62.36
2023-08-05T23:18:49.019Z,64.40
2023-08-05T23:21:20.419Z,78.35
2023-08-05T23:23:52.215Z,80.27
2023-08-05T23:26:23.992Z,77.06
2023-08-05T23:28:59.482Z,73.57
2023-08-05T23:31:30.467Z,70.49
2023-08-05T23:34:02.798Z,67.86
2023-08-05T23:36:34.036Z,65.57
2023-08-05T23:39:05.820Z,63.59
2023-08-05T23:41:37.590Z,61.85
2023-08-05T23:44:08.913Z,60.30
2023-08-05T23:46:40.680Z,56.97
2023-08-05T23:49:13.279Z,51.34
2023-08-05T23:51:44.594Z,49.37
2023-08-05T23:54:16.571Z,48.91
2023-08-05T23:56:48.281Z,48.99
2023-08-05T23:59:19.168Z,49.33
